Time;durP1;ratioP1;P1;durP2;ratioP2;P2;SDS_P1;SDS_P2;PMS_P1;PMS_P2;Temp;Humidity;BMP_temperature;BMP_pressure;BME280_temperature;BME280_humidity;BME280_pressure;Samples;Min_cycle;Max_cycle;Signal;HPM_P1;HPM_P2
2022/05/12 00:02:05;;;;;;;3.7;5.9;;;;;;;-133;65;65260;;;;
2022/05/12 00:13:05;;;;;;;3.7;5.9;;;;;;;-133;65.8;65260;;;;
2022/05/12 00:23:05;;;;;;;3.7;5.9;;;;;;;-133;65.4;65260;;;;
2022/05/12 00:33:05;;;;;;;4;6.4;;;;;;;-133;65.7;65260;;;;
2022/05/12 00:44:05;;;;;;;4;6.4;;;;;;;-133;64.5;65260;;;;
2022/05/12 00:54:05;;;;;;;4;6.4;;;;;;;-133;62.6;65260;;;;
2022/05/12 01:05:05;;;;;;;3.8;7.4;;;;;;;-133;63.3;65260;;;;
2022/05/12 01:16:05;;;;;;;3.8;7.4;;;;;;;-133;62.9;65260;;;;
2022/05/12 01:26:05;;;;;;;3.7;6.5;;;;;;;-133;63;65260;;;;
2022/05/12 01:37:05;;;;;;;3.7;6.5;;;;;;;-133;63.8;65260;;;;
2022/05/12 01:48:05;;;;;;;3.7;6.5;;;;;;;-133;63.4;65260;;;;
2022/05/12 01:59:05;;;;;;;3.4;6.4;;;;;;;-133;61.7;65260;;;;
2022/05/12 02:10:05;;;;;;;3.4;6.4;;;;;;;-133;61.1;65260;;;;
2022/05/12 02:21:05;;;;;;;3.4;6.4;;;;;;;-133;61.5;65260;;;;
2022/05/12 02:31:05;;;;;;;3.4;5.9;;;;;;;-133;61;65260;;;;
2022/05/12 02:42:05;;;;;;;3.4;5.9;;;;;;;-133;60;65260;;;;
2022/05/12 02:52:05;;;;;;;3.4;5.9;;;;;;;-133;59.7;65250;;;;
2022/05/12 03:02:05;;;;;;;3.2;5.9;;;;;;;-133;58.6;65250;;;;
2022/05/12 03:13:05;;;;;;;3.2;5.9;;;;;;;-133;57.6;65250;;;;
2022/05/12 03:23:05;;;;;;;3.2;5.9;;;;;;;-133;57.5;65250;;;;
2022/05/12 03:34:06;;;;;;;3.2;5;;;;;;;-133;58.1;65260;;;;
2022/05/12 03:45:09;;;;;;;3.2;5;;;;;;;-133;58.1;65250;;;;
2022/05/12 03:55:05;;;;;;;3.2;5;;;;;;;-133;57.5;65250;;;;
2022/05/12 04:06:05;;;;;;;3.4;7.6;;;;;;;-133;55.7;65250;;;;
2022/05/12 04:16:05;;;;;;;3.4;7.6;;;;;;;-133;54.7;65250;;;;
2022/05/12 04:27:06;;;;;;;3.5;6.9;;;;;;;-133;53.6;65250;;;;
2022/05/12 04:38:05;;;;;;;3.5;6.9;;;;;;;-133;53.4;65250;;;;
2022/05/12 04:49:05;;;;;;;3.5;6.9;;;;;;;-133;52.7;65250;;;;
2022/05/12 05:00:05;;;;;;;3.5;9;;;;;;;-133;52.1;65250;;;;
2022/05/12 05:10:05;;;;;;;3.5;9;;;;;;;-133;51.7;65240;;;;
2022/05/12 05:21:05;;;;;;;3.5;9;;;;;;;-133;50.4;65250;;;;
2022/05/12 05:32:05;;;;;;;4.4;9.1;;;;;;;-133;50.8;65240;;;;
2022/05/12 05:42:05;;;;;;;4.4;9.1;;;;;;;-133;49.8;65240;;;;
2022/05/12 06:02:05;;;;;;;3.7;7.2;;;;;;;-133;50.1;65240;;;;
2022/05/12 06:12:05;;;;;;;3.7;7.2;;;;;;;-133;50.9;65240;;;;
2022/05/12 06:23:05;;;;;;;3.7;7.2;;;;;;;-133;48;65240;;;;
2022/05/12 06:33:05;;;;;;;3.9;7.7;;;;;;;-133;49.3;65240;;;;
2022/05/12 06:44:05;;;;;;;3.9;7.7;;;;;;;-133;46.5;65240;;;;
2022/05/12 06:54:05;;;;;;;3.9;7.7;;;;;;;-133;46.8;65240;;;;
2022/05/12 07:05:05;;;;;;;4.1;9.6;;;;;;;-133;44.9;65240;;;;
2022/05/12 07:15:05;;;;;;;4.1;9.6;;;;;;;-133;41.7;65240;;;;
2022/05/12 07:26:37;;;;;;;3.1;8;;;;;;;-133;42.3;65240;;;;
2022/05/12 07:36:05;;;;;;;3.1;8;;;;;;;-133;39.9;65240;;;;
2022/05/12 07:46:06;;;;;;;3.1;8;;;;;;;-133;41.2;65240;;;;
2022/05/12 07:57:05;;;;;;;3.2;8;;;;;;;-133;41.7;65240;;;;
2022/05/12 08:08:05;;;;;;;3.2;8;;;;;;;-133;41.5;65240;;;;
2022/05/12 08:19:05;;;;;;;3.2;8;;;;;;;-133;38.1;65240;;;;
2022/05/12 08:30:05;;;;;;;3.2;7;;;;;;;-133;36.7;65240;;;;
2022/05/12 08:41:05;;;;;;;3.2;7;;;;;;;-133;36;65240;;;;
2022/05/12 08:51:05;;;;;;;3.2;7;;;;;;;-133;35.8;65240;;;;
2022/05/12 09:02:05;;;;;;;3.8;15.7;;;;;;;-133;37.7;65240;;;;
2022/05/12 09:13:05;;;;;;;3.8;15.7;;;;;;;-133;38.5;65240;;;;
2022/05/12 09:23:05;;;;;;;3.8;15.7;;;;;;;-133;37.2;65240;;;;
2022/05/12 09:34:05;;;;;;;3.2;8.5;;;;;;;-133;38.2;65240;;;;
2022/05/12 09:45:05;;;;;;;3.2;8.5;;;;;;;-133;38.5;65240;;;;
2022/05/12 09:56:05;;;;;;;3.4;7.1;;;;;;;-133;37.5;65240;;;;
2022/05/12 10:17:05;;;;;;;3.4;7.1;;;;;;;-133;36.7;65240;;;;
2022/05/12 10:27:05;;;;;;;3.2;7.9;;;;;;;-133;38.3;65240;;;;
2022/05/12 10:37:05;;;;;;;3.2;7.9;;;;;;;-133;39.3;65240;;;;
2022/05/12 10:48:05;;;;;;;3.2;7.9;;;;;;;-133;37.7;65240;;;;
2022/05/12 10:59:07;;;;;;;3.5;8.5;;;;;;;-133;36.6;65240;;;;
2022/05/12 11:10:05;;;;;;;3.5;8.5;;;;;;;-133;35.9;65240;;;;
2022/05/12 11:20:05;;;;;;;3.5;8.5;;;;;;;-133;36.1;65240;;;;
2022/05/12 11:31:05;;;;;;;4.2;9.6;;;;;;;-133;36.2;65240;;;;
2022/05/12 11:42:05;;;;;;;4.2;9.6;;;;;;;-133;35.8;65250;;;;
2022/05/12 11:52:05;;;;;;;4.2;9.6;;;;;;;-133;35.2;65240;;;;
2022/05/12 12:02:05;;;;;;;3.7;10.9;;;;;;;-133;35.5;65240;;;;
2022/05/12 12:13:05;;;;;;;3.7;10.9;;;;;;;-133;35.7;65240;;;;
2022/05/12 12:23:05;;;;;;;3.7;10.9;;;;;;;-133;36.6;65240;;;;
2022/05/12 12:34:05;;;;;;;4.1;9.7;;;;;;;-133;38.4;65240;;;;
2022/05/12 12:45:05;;;;;;;4.1;9.7;;;;;;;-133;36.3;65250;;;;
2022/05/12 12:56:36;;;;;;;4.1;9.7;;;;;;;-133;36.6;65250;;;;
2022/05/12 13:06:05;;;;;;;3;8.8;;;;;;;-133;35.7;65240;;;;
2022/05/12 13:16:05;;;;;;;3;8.8;;;;;;;-133;35.5;65250;;;;
2022/05/12 13:26:05;;;;;;;3;8.8;;;;;;;-133;35.8;65250;;;;
2022/05/12 13:36:05;;;;;;;2.7;8.1;;;;;;;-133;34.7;65250;;;;
2022/05/12 13:47:05;;;;;;;2.7;8.1;;;;;;;-133;33.8;65250;;;;
2022/05/12 13:58:05;;;;;;;3;9.9;;;;;;;-133;36.1;65250;;;;
2022/05/12 14:08:05;;;;;;;3;9.9;;;;;;;-133;38.1;65250;;;;
2022/05/12 14:19:14;;;;;;;3;9.9;;;;;;;-133;39.4;65250;;;;
2022/05/12 14:30:05;;;;;;;4;10.7;;;;;;;-133;40.1;65250;;;;
2022/05/12 14:40:06;;;;;;;4;10.7;;;;;;;-133;39.1;65250;;;;
2022/05/12 14:50:05;;;;;;;4;10.7;;;;;;;-133;39.7;65250;;;;
2022/05/12 15:01:05;;;;;;;3.6;8.9;;;;;;;-133;41.5;65250;;;;
2022/05/12 15:12:05;;;;;;;3.6;8.9;;;;;;;-133;37;65250;;;;
2022/05/12 15:23:05;;;;;;;3.6;8.9;;;;;;;-133;35;65250;;;;
2022/05/12 15:33:05;;;;;;;6.8;17.9;;;;;;;-133;33.4;65250;;;;
2022/05/12 15:44:05;;;;;;;6.8;17.9;;;;;;;-133;34.5;65250;;;;
2022/05/12 15:54:05;;;;;;;6.8;17.9;;;;;;;-133;34.6;65250;;;;
2022/05/12 16:05:05;;;;;;;3.1;9.4;;;;;;;-133;33.5;65250;;;;
2022/05/12 16:16:07;;;;;;;3.1;9.4;;;;;;;-133;37.1;65250;;;;
2022/05/12 16:26:05;;;;;;;3.1;9.4;;;;;;;-133;38.3;65250;;;;
2022/05/12 16:37:05;;;;;;;2.5;11;;;;;;;-133;38.1;65250;;;;
2022/05/12 16:47:05;;;;;;;2.5;11;;;;;;;-133;37.6;65250;;;;
2022/05/12 16:57:05;;;;;;;2.5;10.6;;;;;;;-133;39;65250;;;;
2022/05/12 17:08:05;;;;;;;2.5;10.6;;;;;;;-133;39.8;65260;;;;
2022/05/12 17:18:05;;;;;;;2.5;10.6;;;;;;;-133;41.6;65250;;;;
2022/05/12 17:28:05;;;;;;;2.3;11;;;;;;;-133;42.7;65250;;;;
2022/05/12 17:38:05;;;;;;;2.3;11;;;;;;;-133;43.8;65260;;;;
2022/05/12 17:48:05;;;;;;;2.3;11;;;;;;;-133;45.3;65260;;;;
2022/05/12 17:59:05;;;;;;;2;9.1;;;;;;;-133;46.1;65260;;;;
2022/05/12 18:09:05;;;;;;;2;9.1;;;;;;;-133;47.2;65260;;;;
2022/05/12 18:20:07;;;;;;;2;9.1;;;;;;;-133;47.3;65260;;;;
2022/05/12 18:31:05;;;;;;;2.2;6.9;;;;;;;-133;48.6;65270;;;;
2022/05/12 18:42:05;;;;;;;2.2;6.9;;;;;;;-133;49.5;65260;;;;
2022/05/12 18:53:05;;;;;;;2.2;6.9;;;;;;;-133;50.2;65260;;;;
2022/05/12 19:03:05;;;;;;;2.4;6.4;;;;;;;-133;50.3;65270;;;;
2022/05/12 19:13:05;;;;;;;2.4;6.4;;;;;;;-133;50.2;65260;;;;
2022/05/12 19:23:05;;;;;;;2.4;6.4;;;;;;;-133;51.6;65270;;;;
2022/05/12 19:44:05;;;;;;;3.5;9.4;;;;;;;-133;53.7;65260;;;;
2022/05/12 19:54:05;;;;;;;3.5;9.4;;;;;;;-133;58.5;65270;;;;
2022/05/12 20:05:05;;;;;;;3.6;10.9;;;;;;;-133;59.4;65270;;;;
2022/05/12 20:15:06;;;;;;;3.6;10.9;;;;;;;-133;63;65260;;;;
2022/05/12 20:26:05;;;;;;;3.6;10.9;;;;;;;-133;64.2;65270;;;;
2022/05/12 20:36:05;;;;;;;3.9;9.2;;;;;;;-133;65;65270;;;;
2022/05/12 20:46:07;;;;;;;3.9;9.2;;;;;;;-133;66.1;65270;;;;
2022/05/12 20:57:05;;;;;;;4.3;9.9;;;;;;;-133;67.2;65270;;;;
2022/05/12 21:08:05;;;;;;;4.3;9.9;;;;;;;-133;68.3;65270;;;;
2022/05/12 21:18:05;;;;;;;4.3;9.9;;;;;;;-133;68.6;65270;;;;
2022/05/12 21:29:05;;;;;;;4.8;11.8;;;;;;;-133;69.6;65270;;;;
2022/05/12 21:40:05;;;;;;;4.8;11.8;;;;;;;-133;70.9;65270;;;;
2022/05/12 21:50:05;;;;;;;4.8;11.8;;;;;;;-133;70.5;65270;;;;
2022/05/12 22:01:37;;;;;;;5.7;12.4;;;;;;;-133;73.3;65270;;;;
2022/05/12 22:11:05;;;;;;;5.7;12.4;;;;;;;-133;73.2;65270;;;;
2022/05/12 22:22:05;;;;;;;5.7;12.4;;;;;;;-133;73.5;65270;;;;
2022/05/12 22:33:05;;;;;;;4.9;10.5;;;;;;;-133;71.6;65270;;;;
2022/05/12 22:43:05;;;;;;;4.9;10.5;;;;;;;-133;68.8;65270;;;;
2022/05/12 22:53:05;;;;;;;4.9;10.5;;;;;;;-133;67.8;65270;;;;
2022/05/12 23:04:05;;;;;;;4.3;11.9;;;;;;;-133;66.5;65270;;;;
2022/05/12 23:14:05;;;;;;;4.3;11.9;;;;;;;-133;66.8;65270;;;;
2022/05/12 23:24:05;;;;;;;4.3;11.9;;;;;;;-133;66.6;65270;;;;
2022/05/12 23:35:05;;;;;;;3.6;9;;;;;;;-133;68.3;65270;;;;
2022/05/12 23:45:05;;;;;;;3.6;9;;;;;;;-133;69.4;65270;;;;
2022/05/12 23:56:05;;;;;;;3.6;9;;;;;;;-133;68.4;65270;;;;
